M/V Elma — 9HA3522 — position and weather

sailwx.info

Track history (hours):
 
Tides and Currents Weather Stations Pressure Air Temp Water Temp Dewpoint Dewpoint Depression Visibility Wind Speed Wind Dir Waves Ship Positions

M/V Elma

Last reported at 2018-Feb-04 18:07 UTC. Time now 2018-Feb-18 06:53 UTC.
Position N 37°48' E 024°27'.
Warning: this ship's position is 13 days out of date.

Length 168 m; draft 9.7 m.

Type: Cargo ship. MMSI: 229691000.

Date/timePositionNaut miles runAvg speedWind from/ knotsBaromVisibWave heightAir tempDewpointWater temp
2018-Feb-04 18:07N 37°48' E 024°27'810.7
2018-Feb-04 17:24N 37°44' E 024°19'19 9.7
2018-Feb-04 15:26N 37°37' E 023°56'510.9
2018-Feb-04 15:01N 37°37' E 023°51'510.5
2018-Feb-04 14:31N 37°38' E 023°44'510.9
2018-Feb-04 14:01N 37°43' E 023°41'611.0
2018-Feb-04 13:31N 37°48' E 023°38'4 7.7
2018-Feb-04 13:01N 37°50' E 023°34'2 3.4
2018-Feb-04 12:29N 37°51' E 023°32'0 0.1
2018-Feb-04 11:59N 37°51' E 023°32'0 0.1
2018-Feb-04 11:29N 37°51' E 023°32'0 0.1
2018-Feb-04 09:56N 37°51' E 023°32'0 0.1
2018-Feb-04 08:59N 37°51' E 023°32'0 0.0
2018-Feb-04 08:29N 37°51' E 023°32'0 0.1
2018-Feb-04 07:59N 37°51' E 023°31'0 0.1
2018-Feb-04 07:29N 37°51' E 023°32'0 0.1
2018-Feb-04 06:59N 37°51' E 023°31'0 0.0
2018-Feb-04 06:29N 37°51' E 023°31'0 0.1
2018-Feb-04 05:59N 37°51' E 023°31'0 0.1
2018-Feb-04 05:29N 37°51' E 023°32'0 0.0
2018-Feb-04 04:59N 37°51' E 023°32'0 0.0
2018-Feb-04 04:29N 37°51' E 023°32'0 0.0
2018-Feb-04 03:59N 37°51' E 023°32'0 0.1
2018-Feb-04 03:29N 37°51' E 023°32'0 0.0
2018-Feb-04 02:59N 37°51' E 023°32'0 0.0
2018-Feb-04 02:29N 37°51' E 023°32'0 0.1
2018-Feb-04 01:59N 37°51' E 023°32'0 0.0
2018-Feb-04 01:29N 37°51' E 023°32'0 0.0
2018-Feb-04 00:59N 37°51' E 023°32'0 0.1
2018-Feb-04 00:29N 37°51' E 023°32'0 0.0
2018-Feb-03 23:59N 37°51' E 023°32'0 0.0
2018-Feb-03 23:29N 37°51' E 023°32'0 0.1
2018-Feb-03 22:59N 37°51' E 023°32'0 0.0
2018-Feb-03 22:29N 37°51' E 023°32'0 0.1
2018-Feb-03 21:59N 37°51' E 023°32'0 0.0
2018-Feb-03 21:29N 37°51' E 023°32'0 0.0
2018-Feb-03 20:59N 37°51' E 023°32'0 0.0
2018-Feb-03 20:29N 37°51' E 023°32'0 0.0
2018-Feb-03 19:59N 37°51' E 023°32'0 0.0
2018-Feb-03 18:29N 37°51' E 023°32'0 0.0
2018-Feb-03 17:59N 37°51' E 023°32'0 0.1
2018-Feb-03 17:29N 37°51' E 023°32'0 0.1
2018-Feb-03 16:59N 37°51' E 023°32'0 0.0
2018-Feb-03 15:59N 37°51' E 023°32'0 0.0
2018-Feb-03 15:29N 37°51' E 023°32'0 0.0
2018-Feb-03 14:59N 37°51' E 023°32'0 0.0
2018-Feb-03 14:29N 37°51' E 023°32'0 0.1
2018-Feb-03 13:59N 37°51' E 023°32'0 0.0
2018-Feb-03 13:29N 37°51' E 023°32'0 0.1
2018-Feb-03 12:59N 37°51' E 023°31'0 0.1
2018-Feb-03 12:29N 37°51' E 023°32'0 0.1
2018-Feb-03 11:59N 37°51' E 023°32'0 0.0
2018-Feb-03 11:29N 37°51' E 023°32'0 0.1
2018-Feb-03 10:59N 37°51' E 023°32'0 0.0
2018-Feb-03 10:29N 37°51' E 023°32'0 0.1
2018-Feb-03 09:59N 37°51' E 023°32'0 0.1
2018-Feb-03 09:29N 37°51' E 023°32'0 0.1
2018-Feb-03 08:59N 37°51' E 023°32'0 0.1
2018-Feb-03 08:29N 37°51' E 023°32'0 0.0
2018-Feb-03 07:59N 37°51' E 023°32'0 0.0
2018-Feb-03 06:29N 37°51' E 023°32'0 0.1
2018-Feb-03 05:59N 37°51' E 023°32'0 0.0
2018-Feb-03 05:29N 37°51' E 023°32'0 0.1
2018-Feb-03 04:59N 37°51' E 023°31'0 0.3
2018-Feb-03 04:00N 37°51' E 023°32'2 4.5
2018-Feb-03 03:30N 37°51' E 023°35'11 7.7
2018-Feb-03 02:00N 37°42' E 023°45'5 9.7
2018-Feb-03 01:30N 37°37' E 023°45'611.2
2018-Feb-03 01:00N 37°32' E 023°43'611.3
2018-Feb-03 00:30N 37°27' E 023°41'510.9
2018-Feb-03 00:00N 37°21' E 023°39'  
Track history (hours):
 
Tides and Currents Weather Stations Pressure Air Temp Water Temp Dewpoint Dewpoint Depression Visibility Wind Speed Wind Dir Waves Ship Positions

M/V Elma

Last reported at 2018-Feb-04 18:07 UTC. Time now 2018-Feb-18 06:53 UTC.
Position N 37°48' E 024°27'.
Warning: this ship's position is 13 days out of date.

Length 168 m; draft 9.7 m.

Type: Cargo ship. MMSI: 229691000.

Date/timePositionNaut miles runAvg speedWind from/ knotsBaromVisibWave heightAir tempDewpointWater temp
2018-Feb-04 18:07N 37°48' E 024°27'810.7
2018-Feb-04 17:24N 37°44' E 024°19'19 9.7
2018-Feb-04 15:26N 37°37' E 023°56'510.9
2018-Feb-04 15:01N 37°37' E 023°51'510.5
2018-Feb-04 14:31N 37°38' E 023°44'510.9
2018-Feb-04 14:01N 37°43' E 023°41'611.0
2018-Feb-04 13:31N 37°48' E 023°38'4 7.7
2018-Feb-04 13:01N 37°50' E 023°34'2 3.4
2018-Feb-04 12:29N 37°51' E 023°32'0 0.1
2018-Feb-04 11:59N 37°51' E 023°32'0 0.1
2018-Feb-04 11:29N 37°51' E 023°32'0 0.1
2018-Feb-04 09:56N 37°51' E 023°32'0 0.1
2018-Feb-04 08:59N 37°51' E 023°32'0 0.0
2018-Feb-04 08:29N 37°51' E 023°32'0 0.1
2018-Feb-04 07:59N 37°51' E 023°31'0 0.1
2018-Feb-04 07:29N 37°51' E 023°32'0 0.1
2018-Feb-04 06:59N 37°51' E 023°31'0 0.0
2018-Feb-04 06:29N 37°51' E 023°31'0 0.1
2018-Feb-04 05:59N 37°51' E 023°31'0 0.1
2018-Feb-04 05:29N 37°51' E 023°32'0 0.0
2018-Feb-04 04:59N 37°51' E 023°32'0 0.0
2018-Feb-04 04:29N 37°51' E 023°32'0 0.0
2018-Feb-04 03:59N 37°51' E 023°32'0 0.1
2018-Feb-04 03:29N 37°51' E 023°32'0 0.0
2018-Feb-04 02:59N 37°51' E 023°32'0 0.0
2018-Feb-04 02:29N 37°51' E 023°32'0 0.1
2018-Feb-04 01:59N 37°51' E 023°32'0 0.0
2018-Feb-04 01:29N 37°51' E 023°32'0 0.0
2018-Feb-04 00:59N 37°51' E 023°32'0 0.1
2018-Feb-04 00:29N 37°51' E 023°32'0 0.0
2018-Feb-03 23:59N 37°51' E 023°32'0 0.0
2018-Feb-03 23:29N 37°51' E 023°32'0 0.1
2018-Feb-03 22:59N 37°51' E 023°32'0 0.0
2018-Feb-03 22:29N 37°51' E 023°32'0 0.1
2018-Feb-03 21:59N 37°51' E 023°32'0 0.0
2018-Feb-03 21:29N 37°51' E 023°32'0 0.0
2018-Feb-03 20:59N 37°51' E 023°32'0 0.0
2018-Feb-03 20:29N 37°51' E 023°32'0 0.0
2018-Feb-03 19:59N 37°51' E 023°32'0 0.0
2018-Feb-03 18:29N 37°51' E 023°32'0 0.0
2018-Feb-03 17:59N 37°51' E 023°32'0 0.1
2018-Feb-03 17:29N 37°51' E 023°32'0 0.1
2018-Feb-03 16:59N 37°51' E 023°32'0 0.0
2018-Feb-03 15:59N 37°51' E 023°32'0 0.0
2018-Feb-03 15:29N 37°51' E 023°32'0 0.0
2018-Feb-03 14:59N 37°51' E 023°32'0 0.0
2018-Feb-03 14:29N 37°51' E 023°32'0 0.1
2018-Feb-03 13:59N 37°51' E 023°32'0 0.0
2018-Feb-03 13:29N 37°51' E 023°32'0 0.1
2018-Feb-03 12:59N 37°51' E 023°31'0 0.1
2018-Feb-03 12:29N 37°51' E 023°32'0 0.1
2018-Feb-03 11:59N 37°51' E 023°32'0 0.0
2018-Feb-03 11:29N 37°51' E 023°32'0 0.1
2018-Feb-03 10:59N 37°51' E 023°32'0 0.0
2018-Feb-03 10:29N 37°51' E 023°32'0 0.1
2018-Feb-03 09:59N 37°51' E 023°32'0 0.1
2018-Feb-03 09:29N 37°51' E 023°32'0 0.1
2018-Feb-03 08:59N 37°51' E 023°32'0 0.1
2018-Feb-03 08:29N 37°51' E 023°32'0 0.0
2018-Feb-03 07:59N 37°51' E 023°32'0 0.0
2018-Feb-03 06:29N 37°51' E 023°32'0 0.1
2018-Feb-03 05:59N 37°51' E 023°32'0 0.0
2018-Feb-03 05:29N 37°51' E 023°32'0 0.1
2018-Feb-03 04:59N 37°51' E 023°31'0 0.3
2018-Feb-03 04:00N 37°51' E 023°32'2 4.5
2018-Feb-03 03:30N 37°51' E 023°35'11 7.7
2018-Feb-03 02:00N 37°42' E 023°45'5 9.7
2018-Feb-03 01:30N 37°37' E 023°45'611.2
2018-Feb-03 01:00N 37°32' E 023°43'611.3
2018-Feb-03 00:30N 37°27' E 023°41'510.9
2018-Feb-03 00:00N 37°21' E 023°39'  

Dump ship's entire track history